Time;durP1;ratioP1;P1;durP2;ratioP2;P2;SDS_P1;SDS_P2;PMS_P1;PMS_P2;Temp;Humidity;BMP_temperature;BMP_pressure;BME280_temperature;BME280_humidity;BME280_pressure;Samples;Min_cycle;Max_cycle;Signal;HPM_P1;HPM_P2
2019/08/02 00:00:31;;;;;;;6.5;5.299999;;;;;;;16.39;98.54199;95229.71;;;;
2019/08/02 00:01:50;;;;;;;6.5;5.299999;;;;;;;16.39;98.54199;95229.71;;;;
2019/08/02 00:02:51;;;;;;;6.5;5.299999;;;;;;;16.39;98.54199;95229.71;;;;
2019/08/02 00:03:52;;;;;;;6.5;5.299999;;;;;;;16.39;98.54199;95229.71;;;;
2019/08/02 00:04:53;;;;;;;6.5;5.299999;;;;;;;16.39;98.54199;95229.71;;;;
2019/08/02 00:05:54;;;;;;;6.5;5.299999;;;;;;;16.39;98.54199;95229.71;;;;
2019/08/02 00:06:56;;;;;;;6.5;5.299999;;;;;;;16.39;98.54199;95229.71;;;;
2019/08/02 00:07:57;;;;;;;6.5;5.299999;;;;;;;16.39;98.54199;95229.71;;;;
2019/08/02 00:08:58;;;;;;;6.5;5.299999;;;;;;;16.39;98.54199;95229.71;;;;
2019/08/02 00:09:59;;;;;;;6.5;5.299999;;;;;;;16.39;98.54199;95229.71;;;;
2019/08/02 00:11:00;;;;;;;7.3;5.050001;;;;;;;16.5;98.77441;95214.45;;;;
2019/08/02 00:12:02;;;;;;;7.3;5.050001;;;;;;;16.5;98.77441;95214.45;;;;
2019/08/02 00:13:03;;;;;;;7.3;5.050001;;;;;;;16.5;98.77441;95214.45;;;;
2019/08/02 00:14:04;;;;;;;7.3;5.050001;;;;;;;16.5;98.77441;95214.45;;;;
2019/08/02 00:15:05;;;;;;;7.3;5.050001;;;;;;;16.5;98.77441;95214.45;;;;
2019/08/02 00:16:07;;;;;;;7.3;5.050001;;;;;;;16.5;98.77441;95214.45;;;;
2019/08/02 00:17:08;;;;;;;7.3;5.050001;;;;;;;16.5;98.77441;95214.45;;;;
2019/08/02 00:18:09;;;;;;;7.3;5.050001;;;;;;;16.5;98.77441;95214.45;;;;
2019/08/02 00:19:10;;;;;;;7.3;5.050001;;;;;;;16.5;98.77441;95214.45;;;;
2019/08/02 00:20:12;;;;;;;7.3;5.050001;;;;;;;16.5;98.77441;95214.45;;;;
2019/08/02 00:21:13;;;;;;;7.250001;5.450001;;;;;;;16.43;98.58691;95180.22;;;;
2019/08/02 00:22:14;;;;;;;7.250001;5.450001;;;;;;;16.43;98.58691;95180.22;;;;
2019/08/02 00:23:16;;;;;;;7.250001;5.450001;;;;;;;16.43;98.58691;95180.22;;;;
2019/08/02 00:24:17;;;;;;;7.250001;5.450001;;;;;;;16.43;98.58691;95180.22;;;;
2019/08/02 00:25:18;;;;;;;7.250001;5.450001;;;;;;;16.43;98.58691;95180.22;;;;
2019/08/02 00:26:19;;;;;;;7.250001;5.450001;;;;;;;16.43;98.58691;95180.22;;;;
2019/08/02 00:27:20;;;;;;;7.250001;5.450001;;;;;;;16.43;98.58691;95180.22;;;;
2019/08/02 00:28:22;;;;;;;7.250001;5.450001;;;;;;;16.43;98.58691;95180.22;;;;
2019/08/02 00:29:23;;;;;;;7.250001;5.450001;;;;;;;16.43;98.58691;95180.22;;;;
2019/08/02 00:30:24;;;;;;;7.250001;5.450001;;;;;;;16.43;98.58691;95180.22;;;;
2019/08/02 00:31:33;;;;;;;7.7;5.699999;;;;;;;16.32;98.99023;95192.35;;;;
2019/08/02 00:32:34;;;;;;;7.7;5.699999;;;;;;;16.32;98.99023;95192.35;;;;
2019/08/02 00:33:35;;;;;;;7.7;5.699999;;;;;;;16.32;98.99023;95192.35;;;;
2019/08/02 00:34:37;;;;;;;7.7;5.699999;;;;;;;16.32;98.99023;95192.35;;;;
2019/08/02 00:35:38;;;;;;;7.7;5.699999;;;;;;;16.32;98.99023;95192.35;;;;
2019/08/02 00:36:39;;;;;;;7.7;5.699999;;;;;;;16.32;98.99023;95192.35;;;;
2019/08/02 00:37:41;;;;;;;7.7;5.699999;;;;;;;16.32;98.99023;95192.35;;;;
2019/08/02 00:38:42;;;;;;;7.7;5.699999;;;;;;;16.32;98.99023;95192.35;;;;
2019/08/02 00:39:43;;;;;;;7.7;5.699999;;;;;;;16.32;98.99023;95192.35;;;;
2019/08/02 00:40:44;;;;;;;7.7;5.699999;;;;;;;16.32;98.99023;95192.35;;;;
2019/08/02 00:41:48;;;;;;;7.650001;5.3;;;;;;;16.27;99.44238;95183.23;;;;
2019/08/02 00:42:50;;;;;;;7.650001;5.3;;;;;;;16.27;99.44238;95183.23;;;;
2019/08/02 00:43:52;;;;;;;7.650001;5.3;;;;;;;16.27;99.44238;95183.23;;;;
2019/08/02 00:44:54;;;;;;;7.650001;5.3;;;;;;;16.27;99.44238;95183.23;;;;
2019/08/02 00:46:02;;;;;;;7.650001;5.3;;;;;;;16.27;99.44238;95183.23;;;;
2019/08/02 00:47:07;;;;;;;7.650001;5.3;;;;;;;16.27;99.44238;95183.23;;;;
2019/08/02 00:48:09;;;;;;;7.650001;5.3;;;;;;;16.27;99.44238;95183.23;;;;
2019/08/02 00:49:10;;;;;;;7.650001;5.3;;;;;;;16.27;99.44238;95183.23;;;;
2019/08/02 00:50:12;;;;;;;7.650001;5.3;;;;;;;16.27;99.44238;95183.23;;;;
2019/08/02 00:51:14;;;;;;;7.650001;5.3;;;;;;;16.27;99.44238;95183.23;;;;
2019/08/02 00:52:15;;;;;;;7.650001;5.3;;;;;;;16.27;99.44238;95183.23;;;;
2019/08/02 00:53:16;;;;;;;7.299998;4.95;;;;;;;16.33;99.66016;95174.92;;;;
2019/08/02 00:54:17;;;;;;;7.299998;4.95;;;;;;;16.33;99.66016;95174.92;;;;
2019/08/02 00:55:19;;;;;;;7.299998;4.95;;;;;;;16.33;99.66016;95174.92;;;;
2019/08/02 00:56:20;;;;;;;7.299998;4.95;;;;;;;16.33;99.66016;95174.92;;;;
2019/08/02 00:57:22;;;;;;;7.299998;4.95;;;;;;;16.33;99.66016;95174.92;;;;
2019/08/02 00:58:23;;;;;;;7.299998;4.95;;;;;;;16.33;99.66016;95174.92;;;;
2019/08/02 00:59:24;;;;;;;7.299998;4.95;;;;;;;16.33;99.66016;95174.92;;;;
2019/08/02 01:00:25;;;;;;;7.299998;4.95;;;;;;;16.33;99.66016;95174.92;;;;
2019/08/02 01:01:27;;;;;;;7.299998;4.95;;;;;;;16.33;99.66016;95174.92;;;;
2019/08/02 01:02:28;;;;;;;7.299998;4.95;;;;;;;16.33;99.66016;95174.92;;;;
2019/08/02 01:03:29;;;;;;;7.75;5.35;;;;;;;16.34;99.66406;95175.06;;;;
2019/08/02 01:04:30;;;;;;;7.75;5.35;;;;;;;16.34;99.66406;95175.06;;;;
2019/08/02 01:05:31;;;;;;;7.75;5.35;;;;;;;16.34;99.66406;95175.06;;;;
2019/08/02 01:06:33;;;;;;;7.75;5.35;;;;;;;16.34;99.66406;95175.06;;;;
2019/08/02 01:07:34;;;;;;;7.75;5.35;;;;;;;16.34;99.66406;95175.06;;;;
2019/08/02 01:08:35;;;;;;;7.75;5.35;;;;;;;16.34;99.66406;95175.06;;;;
2019/08/02 01:09:36;;;;;;;7.75;5.35;;;;;;;16.34;99.66406;95175.06;;;;
2019/08/02 01:10:37;;;;;;;7.75;5.35;;;;;;;16.34;99.66406;95175.06;;;;
2019/08/02 01:11:50;;;;;;;7.75;5.35;;;;;;;16.34;99.66406;95175.06;;;;
2019/08/02 01:12:52;;;;;;;7.75;5.35;;;;;;;16.34;99.66406;95175.06;;;;
2019/08/02 01:13:53;;;;;;;7.300001;5.3;;;;;;;16.37;99.83203;95175.86;;;;
2019/08/02 01:14:54;;;;;;;7.300001;5.3;;;;;;;16.37;99.83203;95175.86;;;;
2019/08/02 01:15:55;;;;;;;7.300001;5.3;;;;;;;16.37;99.83203;95175.86;;;;
2019/08/02 01:16:56;;;;;;;7.300001;5.3;;;;;;;16.37;99.83203;95175.86;;;;
2019/08/02 01:18:00;;;;;;;7.300001;5.3;;;;;;;16.37;99.83203;95175.86;;;;
2019/08/02 01:19:01;;;;;;;7.300001;5.3;;;;;;;16.37;99.83203;95175.86;;;;
2019/08/02 01:20:02;;;;;;;7.300001;5.3;;;;;;;16.37;99.83203;95175.86;;;;
2019/08/02 01:21:04;;;;;;;7.300001;5.3;;;;;;;16.37;99.83203;95175.86;;;;
2019/08/02 01:22:06;;;;;;;7.300001;5.3;;;;;;;16.37;99.83203;95175.86;;;;
2019/08/02 01:23:08;;;;;;;7.300001;5.3;;;;;;;16.37;99.83203;95175.86;;;;
2019/08/02 01:24:09;;;;;;;7.300001;5.3;;;;;;;16.37;99.83203;95175.86;;;;
2019/08/02 01:25:11;;;;;;;9;5.450001;;;;;;;16.34;100;95182;;;;
2019/08/02 01:26:12;;;;;;;9;5.450001;;;;;;;16.34;100;95182;;;;
2019/08/02 01:27:14;;;;;;;9;5.450001;;;;;;;16.34;100;95182;;;;
2019/08/02 01:28:15;;;;;;;9;5.450001;;;;;;;16.34;100;95182;;;;
2019/08/02 01:29:16;;;;;;;9;5.450001;;;;;;;16.34;100;95182;;;;
2019/08/02 01:30:17;;;;;;;9;5.450001;;;;;;;16.34;100;95182;;;;
2019/08/02 01:31:19;;;;;;;9;5.450001;;;;;;;16.34;100;95182;;;;
2019/08/02 01:32:20;;;;;;;9;5.450001;;;;;;;16.34;100;95182;;;;
2019/08/02 01:33:21;;;;;;;9;5.450001;;;;;;;16.34;100;95182;;;;
2019/08/02 01:34:23;;;;;;;9;5.450001;;;;;;;16.34;100;95182;;;;
2019/08/02 01:35:24;;;;;;;6.4;5.45;;;;;;;16.38;100;95181.73;;;;
2019/08/02 01:36:25;;;;;;;6.4;5.45;;;;;;;16.38;100;95181.73;;;;
2019/08/02 01:37:26;;;;;;;6.4;5.45;;;;;;;16.38;100;95181.73;;;;
2019/08/02 01:38:27;;;;;;;6.4;5.45;;;;;;;16.38;100;95181.73;;;;
2019/08/02 01:39:29;;;;;;;6.4;5.45;;;;;;;16.38;100;95181.73;;;;
2019/08/02 01:40:31;;;;;;;6.4;5.45;;;;;;;16.38;100;95181.73;;;;
2019/08/02 01:41:32;;;;;;;6.4;5.45;;;;;;;16.38;100;95181.73;;;;
2019/08/02 01:42:33;;;;;;;6.4;5.45;;;;;;;16.38;100;95181.73;;;;
2019/08/02 01:43:35;;;;;;;6.4;5.45;;;;;;;16.38;100;95181.73;;;;
2019/08/02 01:44:36;;;;;;;6.4;5.45;;;;;;;16.38;100;95181.73;;;;
2019/08/02 01:45:37;;;;;;;6.750001;5.25;;;;;;;16.33;100;95178.06;;;;
2019/08/02 01:46:39;;;;;;;6.750001;5.25;;;;;;;16.33;100;95178.06;;;;
2019/08/02 01:47:40;;;;;;;6.750001;5.25;;;;;;;16.33;100;95178.06;;;;
2019/08/02 01:48:41;;;;;;;6.750001;5.25;;;;;;;16.33;100;95178.06;;;;
2019/08/02 01:49:42;;;;;;;6.750001;5.25;;;;;;;16.33;100;95178.06;;;;
2019/08/02 01:50:43;;;;;;;6.750001;5.25;;;;;;;16.33;100;95178.06;;;;
2019/08/02 01:51:45;;;;;;;6.750001;5.25;;;;;;;16.33;100;95178.06;;;;
2019/08/02 01:52:46;;;;;;;6.750001;5.25;;;;;;;16.33;100;95178.06;;;;
2019/08/02 01:53:47;;;;;;;6.750001;5.25;;;;;;;16.33;100;95178.06;;;;
2019/08/02 01:54:48;;;;;;;6.750001;5.25;;;;;;;16.33;100;95178.06;;;;
2019/08/02 01:55:50;;;;;;;6.750001;5.25;;;;;;;16.33;100;95178.06;;;;
2019/08/02 01:56:51;;;;;;;6.4;5.349999;;;;;;;16.31;100;95167.56;;;;
2019/08/02 01:57:52;;;;;;;6.4;5.349999;;;;;;;16.31;100;95167.56;;;;
2019/08/02 01:58:54;;;;;;;6.4;5.349999;;;;;;;16.31;100;95167.56;;;;
2019/08/02 01:59:55;;;;;;;6.4;5.349999;;;;;;;16.31;100;95167.56;;;;
2019/08/02 02:00:56;;;;;;;6.4;5.349999;;;;;;;16.31;100;95167.56;;;;
2019/08/02 02:02:02;;;;;;;6.4;5.349999;;;;;;;16.31;100;95167.56;;;;
2019/08/02 02:03:04;;;;;;;6.4;5.349999;;;;;;;16.31;100;95167.56;;;;
2019/08/02 02:04:05;;;;;;;6.4;5.349999;;;;;;;16.31;100;95167.56;;;;
2019/08/02 02:05:07;;;;;;;6.4;5.349999;;;;;;;16.31;100;95167.56;;;;
2019/08/02 02:06:09;;;;;;;6.4;5.349999;;;;;;;16.31;100;95167.56;;;;
2019/08/02 02:07:11;;;;;;;9.15;5.35;;;;;;;16.23;100;95159.8;;;;
2019/08/02 02:08:12;;;;;;;9.15;5.35;;;;;;;16.23;100;95159.8;;;;
2019/08/02 02:09:14;;;;;;;9.15;5.35;;;;;;;16.23;100;95159.8;;;;
2019/08/02 02:10:15;;;;;;;9.15;5.35;;;;;;;16.23;100;95159.8;;;;
2019/08/02 02:11:17;;;;;;;9.15;5.35;;;;;;;16.23;100;95159.8;;;;
2019/08/02 02:12:18;;;;;;;9.15;5.35;;;;;;;16.23;100;95159.8;;;;
2019/08/02 02:13:20;;;;;;;9.15;5.35;;;;;;;16.23;100;95159.8;;;;
2019/08/02 02:14:21;;;;;;;9.15;5.35;;;;;;;16.23;100;95159.8;;;;
2019/08/02 02:15:23;;;;;;;9.15;5.35;;;;;;;16.23;100;95159.8;;;;
2019/08/02 02:16:25;;;;;;;9.15;5.35;;;;;;;16.23;100;95159.8;;;;
2019/08/02 02:17:26;;;;;;;7.900001;5.699999;;;;;;;16.3;100;95158.15;;;;
2019/08/02 02:18:28;;;;;;;7.900001;5.699999;;;;;;;16.3;100;95158.15;;;;
2019/08/02 02:19:29;;;;;;;7.900001;5.699999;;;;;;;16.3;100;95158.15;;;;
2019/08/02 02:20:30;;;;;;;7.900001;5.699999;;;;;;;16.3;100;95158.15;;;;
2019/08/02 02:21:33;;;;;;;7.900001;5.699999;;;;;;;16.3;100;95158.15;;;;
2019/08/02 02:22:44;;;;;;;7.900001;5.699999;;;;;;;16.3;100;95158.15;;;;
2019/08/02 02:24:54;;;;;;;7.900001;5.699999;;;;;;;16.3;100;95158.15;;;;
2019/08/02 02:25:57;;;;;;;7.900001;5.699999;;;;;;;16.3;100;95158.15;;;;
2019/08/02 02:26:58;;;;;;;7.900001;5.699999;;;;;;;16.3;100;95158.15;;;;
2019/08/02 02:28:00;;;;;;;6.249999;5.55;;;;;;;16.31;100;95140.2;;;;
2019/08/02 02:29:01;;;;;;;6.249999;5.55;;;;;;;16.31;100;95140.2;;;;
2019/08/02 02:30:03;;;;;;;6.249999;5.55;;;;;;;16.31;100;95140.2;;;;
2019/08/02 02:31:07;;;;;;;6.249999;5.55;;;;;;;16.31;100;95140.2;;;;
2019/08/02 02:32:08;;;;;;;6.249999;5.55;;;;;;;16.31;100;95140.2;;;;
2019/08/02 02:33:10;;;;;;;6.249999;5.55;;;;;;;16.31;100;95140.2;;;;
2019/08/02 02:34:11;;;;;;;6.249999;5.55;;;;;;;16.31;100;95140.2;;;;
2019/08/02 02:35:12;;;;;;;6.249999;5.55;;;;;;;16.31;100;95140.2;;;;
2019/08/02 02:36:14;;;;;;;6.249999;5.55;;;;;;;16.31;100;95140.2;;;;
2019/08/02 02:37:16;;;;;;;6.249999;5.55;;;;;;;16.31;100;95140.2;;;;
2019/08/02 02:38:17;;;;;;;6.249999;5.55;;;;;;;16.31;100;95140.2;;;;
2019/08/02 02:39:18;;;;;;;7.2;5.5;;;;;;;16.27;100;95119.2;;;;
2019/08/02 02:40:19;;;;;;;7.2;5.5;;;;;;;16.27;100;95119.2;;;;
2019/08/02 02:41:21;;;;;;;7.2;5.5;;;;;;;16.27;100;95119.2;;;;
2019/08/02 02:42:23;;;;;;;7.2;5.5;;;;;;;16.27;100;95119.2;;;;
2019/08/02 02:43:24;;;;;;;7.2;5.5;;;;;;;16.27;100;95119.2;;;;
2019/08/02 02:44:25;;;;;;;7.2;5.5;;;;;;;16.27;100;95119.2;;;;
2019/08/02 02:45:27;;;;;;;7.2;5.5;;;;;;;16.27;100;95119.2;;;;
2019/08/02 02:46:28;;;;;;;7.2;5.5;;;;;;;16.27;100;95119.2;;;;
2019/08/02 02:47:29;;;;;;;7.2;5.5;;;;;;;16.27;100;95119.2;;;;
2019/08/02 02:48:30;;;;;;;7.2;5.5;;;;;;;16.27;100;95119.2;;;;
2019/08/02 02:49:32;;;;;;;7.8;6;;;;;;;16.04;100;95126.47;;;;
2019/08/02 02:50:33;;;;;;;7.8;6;;;;;;;16.04;100;95126.47;;;;
2019/08/02 02:51:42;;;;;;;7.8;6;;;;;;;16.04;100;95126.47;;;;
2019/08/02 02:52:43;;;;;;;7.8;6;;;;;;;16.04;100;95126.47;;;;
2019/08/02 02:53:44;;;;;;;7.8;6;;;;;;;16.04;100;95126.47;;;;
2019/08/02 02:54:45;;;;;;;7.8;6;;;;;;;16.04;100;95126.47;;;;
2019/08/02 02:55:46;;;;;;;7.8;6;;;;;;;16.04;100;95126.47;;;;
2019/08/02 02:56:48;;;;;;;7.8;6;;;;;;;16.04;100;95126.47;;;;
2019/08/02 02:57:49;;;;;;;7.8;6;;;;;;;16.04;100;95126.47;;;;
2019/08/02 02:58:50;;;;;;;7.8;6;;;;;;;16.04;100;95126.47;;;;
2019/08/02 02:59:51;;;;;;;7.750001;5.6;;;;;;;15.8;100;95127.26;;;;
2019/08/02 03:00:52;;;;;;;7.750001;5.6;;;;;;;15.8;100;95127.26;;;;
2019/08/02 03:01:54;;;;;;;7.750001;5.6;;;;;;;15.8;100;95127.26;;;;
2019/08/02 03:02:55;;;;;;;7.750001;5.6;;;;;;;15.8;100;95127.26;;;;
2019/08/02 03:03:56;;;;;;;7.750001;5.6;;;;;;;15.8;100;95127.26;;;;
2019/08/02 03:04:57;;;;;;;7.750001;5.6;;;;;;;15.8;100;95127.26;;;;
2019/08/02 03:05:58;;;;;;;7.750001;5.6;;;;;;;15.8;100;95127.26;;;;
2019/08/02 03:07:00;;;;;;;7.750001;5.6;;;;;;;15.8;100;95127.26;;;;
2019/08/02 03:08:01;;;;;;;7.750001;5.6;;;;;;;15.8;100;95127.26;;;;
2019/08/02 03:09:03;;;;;;;7.750001;5.6;;;;;;;15.8;100;95127.26;;;;
2019/08/02 03:10:05;;;;;;;7.750001;5.6;;;;;;;15.8;100;95127.26;;;;
2019/08/02 03:11:08;;;;;;;8.9;5.950001;;;;;;;15.47;100;95104.67;;;;
2019/08/02 03:12:09;;;;;;;8.9;5.950001;;;;;;;15.47;100;95104.67;;;;
2019/08/02 03:13:10;;;;;;;8.9;5.950001;;;;;;;15.47;100;95104.67;;;;
2019/08/02 03:14:12;;;;;;;8.9;5.950001;;;;;;;15.47;100;95104.67;;;;
2019/08/02 03:15:13;;;;;;;8.9;5.950001;;;;;;;15.47;100;95104.67;;;;
2019/08/02 03:16:15;;;;;;;8.9;5.950001;;;;;;;15.47;100;95104.67;;;;
2019/08/02 03:17:16;;;;;;;8.9;5.950001;;;;;;;15.47;100;95104.67;;;;
2019/08/02 03:18:17;;;;;;;8.9;5.950001;;;;;;;15.47;100;95104.67;;;;
2019/08/02 03:19:18;;;;;;;8.9;5.950001;;;;;;;15.47;100;95104.67;;;;
2019/08/02 03:20:19;;;;;;;8.9;5.950001;;;;;;;15.47;100;95104.67;;;;
2019/08/02 03:21:21;;;;;;;8.250001;6.299999;;;;;;;15.25;100;95087.73;;;;
2019/08/02 03:22:22;;;;;;;8.250001;6.299999;;;;;;;15.25;100;95087.73;;;;
2019/08/02 03:23:23;;;;;;;8.250001;6.299999;;;;;;;15.25;100;95087.73;;;;
2019/08/02 03:24:24;;;;;;;8.250001;6.299999;;;;;;;15.25;100;95087.73;;;;
2019/08/02 03:25:25;;;;;;;8.250001;6.299999;;;;;;;15.25;100;95087.73;;;;
2019/08/02 03:26:26;;;;;;;8.250001;6.299999;;;;;;;15.25;100;95087.73;;;;
2019/08/02 03:27:28;;;;;;;8.250001;6.299999;;;;;;;15.25;100;95087.73;;;;
2019/08/02 03:28:29;;;;;;;8.250001;6.299999;;;;;;;15.25;100;95087.73;;;;
2019/08/02 03:29:30;;;;;;;8.250001;6.299999;;;;;;;15.25;100;95087.73;;;;
2019/08/02 03:30:31;;;;;;;8.250001;6.299999;;;;;;;15.25;100;95087.73;;;;
2019/08/02 03:31:46;;;;;;;8.299999;6.349999;;;;;;;15;100;95079.77;;;;
2019/08/02 03:32:47;;;;;;;8.299999;6.349999;;;;;;;15;100;95079.77;;;;
2019/08/02 03:33:48;;;;;;;8.299999;6.349999;;;;;;;15;100;95079.77;;;;
2019/08/02 03:34:50;;;;;;;8.299999;6.349999;;;;;;;15;100;95079.77;;;;
2019/08/02 03:35:51;;;;;;;8.299999;6.349999;;;;;;;15;100;95079.77;;;;
2019/08/02 03:36:52;;;;;;;8.299999;6.349999;;;;;;;15;100;95079.77;;;;
2019/08/02 03:37:53;;;;;;;8.299999;6.349999;;;;;;;15;100;95079.77;;;;
2019/08/02 03:38:54;;;;;;;8.299999;6.349999;;;;;;;15;100;95079.77;;;;
2019/08/02 03:39:55;;;;;;;8.299999;6.349999;;;;;;;15;100;95079.77;;;;
2019/08/02 03:40:56;;;;;;;8.299999;6.349999;;;;;;;15;100;95079.77;;;;
2019/08/02 03:41:58;;;;;;;7.7;6.400001;;;;;;;14.86;100;95080.02;;;;
2019/08/02 03:43:03;;;;;;;7.7;6.400001;;;;;;;14.86;100;95080.02;;;;
2019/08/02 03:44:04;;;;;;;7.7;6.400001;;;;;;;14.86;100;95080.02;;;;
2019/08/02 03:45:05;;;;;;;7.7;6.400001;;;;;;;14.86;100;95080.02;;;;
2019/08/02 03:46:08;;;;;;;7.7;6.400001;;;;;;;14.86;100;95080.02;;;;
2019/08/02 03:47:09;;;;;;;7.7;6.400001;;;;;;;14.86;100;95080.02;;;;
2019/08/02 03:48:10;;;;;;;7.7;6.400001;;;;;;;14.86;100;95080.02;;;;
2019/08/02 03:49:11;;;;;;;7.7;6.400001;;;;;;;14.86;100;95080.02;;;;
2019/08/02 03:50:12;;;;;;;7.7;6.400001;;;;;;;14.86;100;95080.02;;;;
2019/08/02 03:51:14;;;;;;;7.7;6.400001;;;;;;;14.86;100;95080.02;;;;
2019/08/02 03:52:15;;;;;;;7.7;6.400001;;;;;;;14.86;100;95080.02;;;;
2019/08/02 03:53:16;;;;;;;9.150001;7.000001;;;;;;;14.64;100;95072.2;;;;
2019/08/02 03:54:18;;;;;;;9.150001;7.000001;;;;;;;14.64;100;95072.2;;;;
2019/08/02 03:55:19;;;;;;;9.150001;7.000001;;;;;;;14.64;100;95072.2;;;;
2019/08/02 03:56:20;;;;;;;9.150001;7.000001;;;;;;;14.64;100;95072.2;;;;
2019/08/02 03:57:22;;;;;;;9.150001;7.000001;;;;;;;14.64;100;95072.2;;;;
2019/08/02 03:58:23;;;;;;;9.150001;7.000001;;;;;;;14.64;100;95072.2;;;;
2019/08/02 03:59:24;;;;;;;9.150001;7.000001;;;;;;;14.64;100;95072.2;;;;
2019/08/02 04:00:25;;;;;;;9.150001;7.000001;;;;;;;14.64;100;95072.2;;;;
2019/08/02 04:01:44;;;;;;;9.150001;7.000001;;;;;;;14.64;100;95072.2;;;;
2019/08/02 04:02:45;;;;;;;9.150001;7.000001;;;;;;;14.64;100;95072.2;;;;
2019/08/02 04:03:46;;;;;;;11.35;6.95;;;;;;;14.54;100;95087.09;;;;
2019/08/02 04:04:47;;;;;;;11.35;6.95;;;;;;;14.54;100;95087.09;;;;
2019/08/02 04:05:48;;;;;;;11.35;6.95;;;;;;;14.54;100;95087.09;;;;
2019/08/02 04:06:49;;;;;;;11.35;6.95;;;;;;;14.54;100;95087.09;;;;
2019/08/02 04:07:50;;;;;;;11.35;6.95;;;;;;;14.54;100;95087.09;;;;
2019/08/02 04:08:52;;;;;;;11.35;6.95;;;;;;;14.54;100;95087.09;;;;
2019/08/02 04:09:53;;;;;;;11.35;6.95;;;;;;;14.54;100;95087.09;;;;
2019/08/02 04:10:54;;;;;;;11.35;6.95;;;;;;;14.54;100;95087.09;;;;
2019/08/02 04:11:55;;;;;;;11.35;6.95;;;;;;;14.54;100;95087.09;;;;
2019/08/02 04:12:56;;;;;;;11.35;6.95;;;;;;;14.54;100;95087.09;;;;
2019/08/02 04:13:57;;;;;;;12.3;7.65;;;;;;;14.62;100;95069.73;;;;
2019/08/02 04:14:59;;;;;;;12.3;7.65;;;;;;;14.62;100;95069.73;;;;
2019/08/02 04:16:00;;;;;;;12.3;7.65;;;;;;;14.62;100;95069.73;;;;
2019/08/02 04:17:01;;;;;;;12.3;7.65;;;;;;;14.62;100;95069.73;;;;
2019/08/02 04:18:03;;;;;;;12.3;7.65;;;;;;;14.62;100;95069.73;;;;
2019/08/02 04:19:04;;;;;;;12.3;7.65;;;;;;;14.62;100;95069.73;;;;
2019/08/02 04:20:05;;;;;;;12.3;7.65;;;;;;;14.62;100;95069.73;;;;
2019/08/02 04:21:07;;;;;;;12.3;7.65;;;;;;;14.62;100;95069.73;;;;
2019/08/02 04:22:08;;;;;;;12.3;7.65;;;;;;;14.62;100;95069.73;;;;
2019/08/02 04:23:09;;;;;;;12.3;7.65;;;;;;;14.62;100;95069.73;;;;
2019/08/02 04:24:10;;;;;;;12.3;7.65;;;;;;;14.62;100;95069.73;;;;
2019/08/02 04:25:11;;;;;;;8.75;7.8;;;;;;;15.11;100;95056.17;;;;
2019/08/02 04:26:13;;;;;;;8.75;7.8;;;;;;;15.11;100;95056.17;;;;
2019/08/02 04:27:14;;;;;;;8.75;7.8;;;;;;;15.11;100;95056.17;;;;
2019/08/02 04:28:15;;;;;;;8.75;7.8;;;;;;;15.11;100;95056.17;;;;
2019/08/02 04:29:17;;;;;;;8.75;7.8;;;;;;;15.11;100;95056.17;;;;
2019/08/02 04:30:18;;;;;;;8.75;7.8;;;;;;;15.11;100;95056.17;;;;
2019/08/02 04:31:37;;;;;;;8.75;7.8;;;;;;;15.11;100;95056.17;;;;
2019/08/02 04:32:38;;;;;;;8.75;7.8;;;;;;;15.11;100;95056.17;;;;
2019/08/02 04:33:39;;;;;;;8.75;7.8;;;;;;;15.11;100;95056.17;;;;
2019/08/02 04:34:41;;;;;;;8.75;7.8;;;;;;;15.11;100;95056.17;;;;
2019/08/02 04:35:42;;;;;;;8.150002;7.05;;;;;;;15.54;100;95050.63;;;;
2019/08/02 04:36:43;;;;;;;8.150002;7.05;;;;;;;15.54;100;95050.63;;;;
2019/08/02 04:37:44;;;;;;;8.150002;7.05;;;;;;;15.54;100;95050.63;;;;
2019/08/02 04:38:46;;;;;;;8.150002;7.05;;;;;;;15.54;100;95050.63;;;;
2019/08/02 04:39:47;;;;;;;8.150002;7.05;;;;;;;15.54;100;95050.63;;;;
2019/08/02 04:40:48;;;;;;;8.150002;7.05;;;;;;;15.54;100;95050.63;;;;
2019/08/02 04:41:49;;;;;;;8.150002;7.05;;;;;;;15.54;100;95050.63;;;;
2019/08/02 04:42:53;;;;;;;8.150002;7.05;;;;;;;15.54;100;95050.63;;;;
2019/08/02 04:43:54;;;;;;;8.150002;7.05;;;;;;;15.54;100;95050.63;;;;
2019/08/02 04:44:55;;;;;;;8.150002;7.05;;;;;;;15.54;100;95050.63;;;;
2019/08/02 04:45:57;;;;;;;8.299998;6.900001;;;;;;;15.93;100;95036.45;;;;
2019/08/02 04:46:58;;;;;;;8.299998;6.900001;;;;;;;15.93;100;95036.45;;;;
2019/08/02 04:47:59;;;;;;;8.299998;6.900001;;;;;;;15.93;100;95036.45;;;;
2019/08/02 04:49:00;;;;;;;8.299998;6.900001;;;;;;;15.93;100;95036.45;;;;
2019/08/02 04:50:01;;;;;;;8.299998;6.900001;;;;;;;15.93;100;95036.45;;;;
2019/08/02 04:51:03;;;;;;;8.299998;6.900001;;;;;;;15.93;100;95036.45;;;;
2019/08/02 04:52:04;;;;;;;8.299998;6.900001;;;;;;;15.93;100;95036.45;;;;
2019/08/02 04:53:05;;;;;;;8.299998;6.900001;;;;;;;15.93;100;95036.45;;;;
2019/08/02 04:54:07;;;;;;;8.299998;6.900001;;;;;;;15.93;100;95036.45;;;;
2019/08/02 04:55:08;;;;;;;8.299998;6.900001;;;;;;;15.93;100;95036.45;;;;
2019/08/02 04:56:09;;;;;;;10.55;7.299999;;;;;;;16.05;100;95037.38;;;;
2019/08/02 04:57:10;;;;;;;10.55;7.299999;;;;;;;16.05;100;95037.38;;;;
2019/08/02 04:58:11;;;;;;;10.55;7.299999;;;;;;;16.05;100;95037.38;;;;
2019/08/02 04:59:13;;;;;;;10.55;7.299999;;;;;;;16.05;100;95037.38;;;;
2019/08/02 05:00:14;;;;;;;10.55;7.299999;;;;;;;16.05;100;95037.38;;;;
2019/08/02 05:01:16;;;;;;;10.55;7.299999;;;;;;;16.05;100;95037.38;;;;
2019/08/02 05:02:51;;;;;;;10.55;7.299999;;;;;;;16.05;100;95037.38;;;;
2019/08/02 05:04:00;;;;;;;10.55;7.299999;;;;;;;16.05;100;95037.38;;;;
2019/08/02 05:05:03;;;;;;;10.55;7.299999;;;;;;;16.05;100;95037.38;;;;
2019/08/02 05:06:04;;;;;;;10.55;7.299999;;;;;;;16.05;100;95037.38;;;;
2019/08/02 05:07:05;;;;;;;10.2;7.5;;;;;;;16.04;100;95034.41;;;;
2019/08/02 05:08:06;;;;;;;10.2;7.5;;;;;;;16.04;100;95034.41;;;;
2019/08/02 05:09:08;;;;;;;10.2;7.5;;;;;;;16.04;100;95034.41;;;;
2019/08/02 05:10:10;;;;;;;10.2;7.5;;;;;;;16.04;100;95034.41;;;;
2019/08/02 05:11:12;;;;;;;10.2;7.5;;;;;;;16.04;100;95034.41;;;;
2019/08/02 05:12:13;;;;;;;10.2;7.5;;;;;;;16.04;100;95034.41;;;;
2019/08/02 05:13:14;;;;;;;10.2;7.5;;;;;;;16.04;100;95034.41;;;;
2019/08/02 05:14:15;;;;;;;10.2;7.5;;;;;;;16.04;100;95034.41;;;;
2019/08/02 05:15:16;;;;;;;10.2;7.5;;;;;;;16.04;100;95034.41;;;;
2019/08/02 05:16:18;;;;;;;10.2;7.5;;;;;;;16.04;100;95034.41;;;;
2019/08/02 05:17:20;;;;;;;10.2;7.5;;;;;;;16.04;100;95034.41;;;;
2019/08/02 05:18:21;;;;;;;7.750001;6.450001;;;;;;;16.01;100;95049.53;;;;
2019/08/02 05:19:22;;;;;;;7.750001;6.450001;;;;;;;16.01;100;95049.53;;;;
2019/08/02 05:20:23;;;;;;;7.750001;6.450001;;;;;;;16.01;100;95049.53;;;;
2019/08/02 05:21:24;;;;;;;7.750001;6.450001;;;;;;;16.01;100;95049.53;;;;
2019/08/02 05:22:25;;;;;;;7.750001;6.450001;;;;;;;16.01;100;95049.53;;;;
2019/08/02 05:23:26;;;;;;;7.750001;6.450001;;;;;;;16.01;100;95049.53;;;;
2019/08/02 05:24:28;;;;;;;7.750001;6.450001;;;;;;;16.01;100;95049.53;;;;
2019/08/02 05:25:29;;;;;;;7.750001;6.450001;;;;;;;16.01;100;95049.53;;;;
2019/08/02 05:26:41;;;;;;;7.750001;6.450001;;;;;;;16.01;100;95049.53;;;;
2019/08/02 05:27:42;;;;;;;7.750001;6.450001;;;;;;;16.01;100;95049.53;;;;
2019/08/02 05:28:43;;;;;;;20.9;7.900001;;;;;;;16.37;100;95046.01;;;;
2019/08/02 05:29:44;;;;;;;20.9;7.900001;;;;;;;16.37;100;95046.01;;;;
2019/08/02 05:30:46;;;;;;;20.9;7.900001;;;;;;;16.37;100;95046.01;;;;
2019/08/02 05:31:54;;;;;;;20.9;7.900001;;;;;;;16.37;100;95046.01;;;;
2019/08/02 05:32:55;;;;;;;20.9;7.900001;;;;;;;16.37;100;95046.01;;;;
2019/08/02 05:33:56;;;;;;;20.9;7.900001;;;;;;;16.37;100;95046.01;;;;
2019/08/02 05:34:57;;;;;;;20.9;7.900001;;;;;;;16.37;100;95046.01;;;;
2019/08/02 05:35:58;;;;;;;20.9;7.900001;;;;;;;16.37;100;95046.01;;;;
2019/08/02 05:36:59;;;;;;;20.9;7.900001;;;;;;;16.37;100;95046.01;;;;
2019/08/02 05:38:00;;;;;;;20.9;7.900001;;;;;;;16.37;100;95046.01;;;;
2019/08/02 05:39:03;;;;;;;9.450001;7;;;;;;;16.79;100;95047.38;;;;
2019/08/02 05:40:05;;;;;;;9.450001;7;;;;;;;16.79;100;95047.38;;;;
2019/08/02 05:41:07;;;;;;;9.450001;7;;;;;;;16.79;100;95047.38;;;;
2019/08/02 05:42:09;;;;;;;9.450001;7;;;;;;;16.79;100;95047.38;;;;
2019/08/02 05:43:10;;;;;;;9.450001;7;;;;;;;16.79;100;95047.38;;;;
2019/08/02 05:44:11;;;;;;;9.450001;7;;;;;;;16.79;100;95047.38;;;;
2019/08/02 05:45:12;;;;;;;9.450001;7;;;;;;;16.79;100;95047.38;;;;
2019/08/02 05:46:14;;;;;;;9.450001;7;;;;;;;16.79;100;95047.38;;;;
2019/08/02 05:47:15;;;;;;;9.450001;7;;;;;;;16.79;100;95047.38;;;;
2019/08/02 05:48:16;;;;;;;9.450001;7;;;;;;;16.79;100;95047.38;;;;
2019/08/02 05:49:18;;;;;;;22;6.8;;;;;;;17.28;100;95051.87;;;;
2019/08/02 05:50:19;;;;;;;22;6.8;;;;;;;17.28;100;95051.87;;;;
2019/08/02 05:51:20;;;;;;;22;6.8;;;;;;;17.28;100;95051.87;;;;
2019/08/02 05:52:21;;;;;;;22;6.8;;;;;;;17.28;100;95051.87;;;;
2019/08/02 05:53:22;;;;;;;22;6.8;;;;;;;17.28;100;95051.87;;;;
2019/08/02 05:54:24;;;;;;;22;6.8;;;;;;;17.28;100;95051.87;;;;
2019/08/02 05:55:25;;;;;;;22;6.8;;;;;;;17.28;100;95051.87;;;;
2019/08/02 05:56:40;;;;;;;22;6.8;;;;;;;17.28;100;95051.87;;;;
2019/08/02 05:57:42;;;;;;;22;6.8;;;;;;;17.28;100;95051.87;;;;